Time;durP1;ratioP1;P1;durP2;ratioP2;P2;SDS_P1;SDS_P2;PMS_P1;PMS_P2;Temp;Humidity;BMP_temperature;BMP_pressure;BME280_temperature;BME280_humidity;BME280_pressure;Samples;Min_cycle;Max_cycle;Signal;HPM_P1;HPM_P2
2023/11/14 00:02:11;;;;;;;;;;;;;;;21.28;26.76;97953.09;5000820;28;1909;-75
2023/11/14 00:04:38;;;;;;;;;;;;;;;21.27;26.53;97956.38;5034696;28;1667;-75
2023/11/14 00:07:05;;;;;;;;;;;;;;;21.16;26.86;97959.47;5001775;28;1970;-74
2023/11/14 00:09:31;;;;;;;;;;;;;;;20.81;27.17;97958.31;5034591;28;1714;-75
2023/11/14 00:11:56;;;;;;;;;;;;;;;20.78;27.31;97962.84;5018157;28;1677;-74
2023/11/14 00:14:22;;;;;;;;;;;;;;;20.70;27.36;97964.25;5017331;28;1564;-75
2023/11/14 00:16:48;;;;;;;;;;;;;;;20.71;27.44;97956.56;5003247;28;1897;-75
2023/11/14 00:19:13;;;;;;;;;;;;;;;20.52;27.77;97959.00;4994820;28;1731;-74
2023/11/14 00:21:39;;;;;;;;;;;;;;;20.59;27.94;97962.91;4995079;28;1657;-74
2023/11/14 00:24:06;;;;;;;;;;;;;;;20.58;27.69;97953.63;4995195;28;1684;-75
2023/11/14 00:26:32;;;;;;;;;;;;;;;20.89;27.18;97942.00;4983085;28;1965;-75
2023/11/14 00:28:58;;;;;;;;;;;;;;;20.59;27.47;97949.56;4975535;28;1920;-74
2023/11/14 00:31:24;;;;;;;;;;;;;;;20.19;28.37;97946.00;4959514;28;1732;-75
2023/11/14 00:33:49;;;;;;;;;;;;;;;20.66;27.75;97942.94;4961350;28;1881;-75
2023/11/14 00:36:15;;;;;;;;;;;;;;;20.92;27.25;97955.25;4994484;28;1700;-75
2023/11/14 00:38:41;;;;;;;;;;;;;;;21.05;27.25;97953.31;4994676;28;1742;-75
2023/11/14 00:41:07;;;;;;;;;;;;;;;20.84;27.60;97951.00;4994752;28;2080;-75
2023/11/14 00:43:33;;;;;;;;;;;;;;;20.41;28.24;97951.97;4966776;28;1613;-75
2023/11/14 00:45:59;;;;;;;;;;;;;;;20.50;27.90;97957.84;4978071;28;1973;-75
2023/11/14 00:48:24;;;;;;;;;;;;;;;20.64;27.79;97949.03;4955805;29;1716;-74
2023/11/14 00:50:50;;;;;;;;;;;;;;;20.61;28.19;97949.13;4955766;28;1712;-75
2023/11/14 00:53:16;;;;;;;;;;;;;;;20.84;27.81;97951.00;4955698;28;1729;-75
2023/11/14 00:55:42;;;;;;;;;;;;;;;20.27;28.27;97942.59;4940004;29;2052;-75
2023/11/14 00:58:08;;;;;;;;;;;;;;;20.73;27.89;97940.75;4939860;29;1784;-75
2023/11/14 01:00:33;;;;;;;;;;;;;;;20.69;28.13;97951.34;4968718;28;1866;-75
2023/11/14 01:03:00;;;;;;;;;;;;;;;20.81;27.64;97950.63;4978123;28;1720;-74
2023/11/14 01:05:28;;;;;;;;;;;;;;;20.52;28.15;97946.88;4978099;28;1729;-75
2023/11/14 01:07:54;;;;;;;;;;;;;;;20.73;27.75;97943.59;4994486;28;1989;-75
2023/11/14 01:10:21;;;;;;;;;;;;;;;20.46;28.39;97942.97;4977743;28;1970;-75
2023/11/14 01:12:47;;;;;;;;;;;;;;;20.38;28.73;97947.19;4976197;28;1660;-75
2023/11/14 01:15:13;;;;;;;;;;;;;;;20.46;28.65;97943.78;4994286;28;1775;-75
2023/11/14 01:17:38;;;;;;;;;;;;;;;20.87;27.85;97955.78;4994351;28;1681;-75
2023/11/14 01:20:05;;;;;;;;;;;;;;;20.48;28.26;97951.84;4978186;28;1710;-75
2023/11/14 01:22:31;;;;;;;;;;;;;;;20.50;28.60;97960.66;5030680;28;1762;-75
2023/11/14 01:24:57;;;;;;;;;;;;;;;20.87;27.89;97965.03;5013990;28;1714;-74
2023/11/14 01:27:22;;;;;;;;;;;;;;;21.06;27.73;97957.72;5015482;28;1914;-74
2023/11/14 01:29:50;;;;;;;;;;;;;;;21.17;27.68;97963.91;5001755;28;1729;-74
2023/11/14 01:32:15;;;;;;;;;;;;;;;20.87;28.03;97958.59;4998966;28;1481;-74
2023/11/14 01:34:41;;;;;;;;;;;;;;;20.79;27.66;97955.94;5015930;28;1708;-75
2023/11/14 01:37:06;;;;;;;;;;;;;;;20.50;28.21;97949.38;5012604;28;1714;-75
2023/11/14 01:39:32;;;;;;;;;;;;;;;20.63;28.25;97941.81;4998958;28;1693;-74
2023/11/14 01:41:57;;;;;;;;;;;;;;;20.52;28.40;97949.72;4982417;28;1586;-74
2023/11/14 01:44:23;;;;;;;;;;;;;;;20.63;28.60;97955.94;5015792;28;1974;-75
2023/11/14 01:46:49;;;;;;;;;;;;;;;20.62;28.60;97951.50;5002662;28;2031;-74
2023/11/14 01:49:14;;;;;;;;;;;;;;;20.54;28.72;97950.88;5005650;28;1760;-75
2023/11/14 01:51:40;;;;;;;;;;;;;;;20.41;28.54;97951.97;5015222;28;1712;-75
2023/11/14 01:54:06;;;;;;;;;;;;;;;20.63;28.52;97955.16;4991604;28;1727;-75
2023/11/14 01:56:31;;;;;;;;;;;;;;;20.71;28.45;97954.50;4981318;28;1899;-75
2023/11/14 01:58:57;;;;;;;;;;;;;;;20.50;28.65;97938.06;5014407;28;1860;-75
2023/11/14 02:01:23;;;;;;;;;;;;;;;20.38;29.14;97947.19;5031615;28;1620;-75
2023/11/14 02:03:48;;;;;;;;;;;;;;;21.22;27.54;97942.75;5032717;28;1808;-75
2023/11/14 02:06:14;;;;;;;;;;;;;;;21.35;27.29;97934.34;5052917;28;1917;-74
2023/11/14 02:08:39;;;;;;;;;;;;;;;21.38;27.31;97933.47;5019810;28;2010;-75
2023/11/14 02:11:05;;;;;;;;;;;;;;;21.33;27.59;97929.16;5036263;28;1718;-75
2023/11/14 02:13:31;;;;;;;;;;;;;;;21.10;27.48;97930.16;5050359;28;1769;-75
2023/11/14 02:15:57;;;;;;;;;;;;;;;20.89;28.26;97937.13;5042718;28;1736;-75
2023/11/14 02:18:23;;;;;;;;;;;;;;;20.79;28.21;97933.31;5036225;28;1694;-74
2023/11/14 02:20:49;;;;;;;;;;;;;;;20.75;28.31;97918.47;4996599;28;1609;-74
2023/11/14 02:23:15;;;;;;;;;;;;;;;20.70;28.36;97930.31;4980378;28;1686;-74
2023/11/14 02:25:41;;;;;;;;;;;;;;;20.58;28.65;97928.19;5005756;28;1729;-75
2023/11/14 02:28:07;;;;;;;;;;;;;;;20.65;28.78;97928.00;4995907;28;2113;-74
2023/11/14 02:30:33;;;;;;;;;;;;;;;20.59;28.82;97929.78;4969300;28;1486;-75
2023/11/14 02:32:58;;;;;;;;;;;;;;;20.55;28.62;97924.19;4977134;28;1862;-74
2023/11/14 02:35:24;;;;;;;;;;;;;;;20.64;28.84;97932.06;4993836;28;1680;-74
2023/11/14 02:37:50;;;;;;;;;;;;;;;20.57;28.57;97926.56;4996823;28;1668;-75
2023/11/14 02:40:16;;;;;;;;;;;;;;;20.72;28.45;97930.66;4997240;28;1567;-74
2023/11/14 02:42:42;;;;;;;;;;;;;;;20.59;28.72;97926.94;4964814;28;1663;-75
2023/11/14 02:45:08;;;;;;;;;;;;;;;20.58;29.08;97931.03;4996076;28;1468;-75
2023/11/14 02:47:33;;;;;;;;;;;;;;;20.64;28.96;97926.44;4980482;28;2023;-74
2023/11/14 02:50:01;;;;;;;;;;;;;;;20.69;28.70;97927.94;4996717;28;1913;-74
2023/11/14 02:52:27;;;;;;;;;;;;;;;20.59;29.06;97935.44;5010286;28;1496;-75
2023/11/14 02:54:52;;;;;;;;;;;;;;;20.84;28.41;97931.22;5013578;28;1881;-75
2023/11/14 02:57:18;;;;;;;;;;;;;;;20.55;28.87;97934.72;4975664;28;1762;-74
2023/11/14 02:59:45;;;;;;;;;;;;;;;20.59;28.71;97935.44;4999132;28;2038;-75
2023/11/14 03:02:11;;;;;;;;;;;;;;;20.52;29.00;97942.06;5032311;28;1795;-75
2023/11/14 03:04:36;;;;;;;;;;;;;;;20.74;28.70;97933.84;5052761;28;2002;-75
2023/11/14 03:07:02;;;;;;;;;;;;;;;20.64;28.93;97942.59;5034019;28;1906;-75
2023/11/14 03:09:27;;;;;;;;;;;;;;;20.86;28.31;97937.22;5018291;28;1758;-74
2023/11/14 03:11:53;;;;;;;;;;;;;;;20.67;28.44;97941.69;5033528;28;1752;-75
2023/11/14 03:14:19;;;;;;;;;;;;;;;20.35;29.38;97939.59;5035671;28;1603;-75
2023/11/14 03:16:47;;;;;;;;;;;;;;;21.06;28.21;97940.75;5021048;28;1678;-74
2023/11/14 03:19:12;;;;;;;;;;;;;;;21.26;27.76;97937.81;5016969;28;1921;-75
2023/11/14 03:21:42;;;;;;;;;;;;;;;21.35;27.47;97934.34;5015931;28;1761;-75
2023/11/14 03:24:08;;;;;;;;;;;;;;;20.97;28.34;97938.53;5007500;28;1698;-74
2023/11/14 03:26:34;;;;;;;;;;;;;;;20.76;28.64;97939.06;5033800;28;1903;-75
2023/11/14 03:29:00;;;;;;;;;;;;;;;20.63;28.74;97938.97;5009153;28;1730;-75
2023/11/14 03:31:25;;;;;;;;;;;;;;;21.00;28.28;97931.22;5034147;28;1946;-76
2023/11/14 03:33:51;;;;;;;;;;;;;;;20.71;28.88;97931.91;5024467;28;1604;-75
2023/11/14 03:36:18;;;;;;;;;;;;;;;20.70;28.56;97930.31;5029522;28;1867;-74
2023/11/14 03:38:43;;;;;;;;;;;;;;;20.70;28.79;97930.31;5044303;28;1485;-74
2023/11/14 03:41:09;;;;;;;;;;;;;;;20.74;28.96;97916.09;5037340;28;1655;-75
2023/11/14 03:43:35;;;;;;;;;;;;;;;20.66;28.93;97917.50;5050345;28;1554;-75
2023/11/14 03:46:01;;;;;;;;;;;;;;;20.70;28.99;97927.47;5035978;28;1906;-75
2023/11/14 03:48:26;;;;;;;;;;;;;;;20.98;28.60;97916.69;5036089;28;1841;-75
2023/11/14 03:50:52;;;;;;;;;;;;;;;20.55;28.90;97918.53;5036027;28;2429;-74
2023/11/14 03:53:17;;;;;;;;;;;;;;;20.45;29.45;97913.13;5019782;28;1668;-75
2023/11/14 03:55:44;;;;;;;;;;;;;;;20.38;29.38;97914.09;5038167;28;1461;-75
2023/11/14 03:58:10;;;;;;;;;;;;;;;20.60;29.02;97914.41;5038100;28;1901;-74
2023/11/14 04:00:36;;;;;;;;;;;;;;;20.50;29.19;97909.78;5053412;28;1736;-74
2023/11/14 04:03:02;;;;;;;;;;;;;;;20.72;28.77;97910.88;5020132;28;1734;-75
2023/11/14 04:05:27;;;;;;;;;;;;;;;20.32;29.46;97910.19;5029895;28;1683;-74
2023/11/14 04:07:53;;;;;;;;;;;;;;;21.07;28.57;97909.19;5043471;28;2143;-74
2023/11/14 04:10:20;;;;;;;;;;;;;;;21.44;27.96;97920.38;5048109;28;1923;-74
2023/11/14 04:12:45;;;;;;;;;;;;;;;21.11;28.17;97914.75;5030370;28;1638;-75
2023/11/14 04:15:11;;;;;;;;;;;;;;;21.20;27.84;97917.75;5046953;28;1719;-75
2023/11/14 04:17:38;;;;;;;;;;;;;;;20.92;28.22;97909.97;5019999;28;1818;-75
2023/11/14 04:20:05;;;;;;;;;;;;;;;20.91;28.32;97919.72;5036285;28;1860;-75
2023/11/14 04:22:30;;;;;;;;;;;;;;;20.62;28.81;97926.06;5035373;28;1812;-75
2023/11/14 04:24:58;;;;;;;;;;;;;;;20.56;29.28;97925.00;5051285;28;1807;-75
2023/11/14 04:27:24;;;;;;;;;;;;;;;20.50;29.23;97932.41;5037157;28;1973;-74
2023/11/14 04:29:49;;;;;;;;;;;;;;;20.46;29.28;97931.66;5015120;28;1771;-74
2023/11/14 04:32:15;;;;;;;;;;;;;;;20.58;29.19;97928.19;5030844;28;1410;-75
2023/11/14 04:34:41;;;;;;;;;;;;;;;20.41;29.64;97940.66;5014313;28;1677;-75
2023/11/14 04:37:09;;;;;;;;;;;;;;;20.41;29.30;97935.00;5047626;28;1699;-74
2023/11/14 04:39:34;;;;;;;;;;;;;;;20.12;30.06;97946.94;5035423;28;1483;-74
2023/11/14 04:42:01;;;;;;;;;;;;;;;21.00;28.65;97936.88;5018831;28;1661;-75
2023/11/14 04:44:26;;;;;;;;;;;;;;;21.23;28.25;97945.13;5034889;28;1901;-75
2023/11/14 04:46:52;;;;;;;;;;;;;;;21.35;28.09;97942.84;5033650;28;1968;-75
2023/11/14 04:49:17;;;;;;;;;;;;;;;20.81;28.77;97941.38;5032002;28;1652;-75
2023/11/14 04:51:43;;;;;;;;;;;;;;;20.54;29.28;97933.91;5039635;28;1443;-75
2023/11/14 04:54:08;;;;;;;;;;;;;;;20.33;29.69;97933.59;5032863;28;1848;-75
2023/11/14 04:56:34;;;;;;;;;;;;;;;20.54;29.48;97927.47;5031968;28;1056;-75
2023/11/14 04:59:00;;;;;;;;;;;;;;;20.72;29.33;97925.00;5031272;28;971;-75
2023/11/14 05:01:25;;;;;;;;;;;;;;;20.70;29.35;97933.13;5016750;28;1541;-74
2023/11/14 05:03:51;;;;;;;;;;;;;;;20.69;29.07;97934.38;5036108;28;1250;-75
2023/11/14 05:06:16;;;;;;;;;;;;;;;20.54;29.31;97933.91;5034930;28;1902;-74
2023/11/14 05:08:42;;;;;;;;;;;;;;;20.45;29.34;97927.25;5033751;28;1122;-74
2023/11/14 05:11:07;;;;;;;;;;;;;;;20.48;29.58;97923.59;5017069;28;1280;-75
2023/11/14 05:13:33;;;;;;;;;;;;;;;20.63;29.32;97930.50;4997296;28;1566;-74
2023/11/14 05:15:58;;;;;;;;;;;;;;;20.48;29.69;97929.22;4997860;28;1583;-75
2023/11/14 05:18:24;;;;;;;;;;;;;;;20.35;29.63;97942.41;4997364;28;1563;-74
2023/11/14 05:20:49;;;;;;;;;;;;;;;21.24;28.36;97926.94;4997365;28;2345;-75
2023/11/14 05:23:15;;;;;;;;;;;;;;;21.39;28.04;97935.06;4997200;28;1777;-74
2023/11/14 05:25:41;;;;;;;;;;;;;;;21.31;28.02;97946.59;4997454;28;1748;-74
2023/11/14 05:28:07;;;;;;;;;;;;;;;20.66;28.96;97946.56;4996592;28;1981;-75
2023/11/14 05:30:32;;;;;;;;;;;;;;;20.61;29.08;97937.81;5013946;28;1561;-75
2023/11/14 05:32:58;;;;;;;;;;;;;;;20.44;29.41;97939.78;4993847;28;1513;-75
2023/11/14 05:35:23;;;;;;;;;;;;;;;20.72;28.65;97944.00;4977834;28;1686;-74
2023/11/14 05:37:49;;;;;;;;;;;;;;;20.75;28.91;97948.78;4994227;28;1614;-74
2023/11/14 05:40:15;;;;;;;;;;;;;;;20.55;29.39;97952.47;4961357;28;1504;-74
2023/11/14 05:42:40;;;;;;;;;;;;;;;20.73;28.97;97946.41;4974707;28;1506;-75
2023/11/14 05:45:06;;;;;;;;;;;;;;;20.62;29.29;97945.84;4974660;28;1507;-74
2023/11/14 05:47:32;;;;;;;;;;;;;;;20.29;29.62;97945.75;4955527;28;1981;-75
2023/11/14 05:49:57;;;;;;;;;;;;;;;20.75;29.16;97949.56;4960275;28;1366;-74
2023/11/14 05:52:23;;;;;;;;;;;;;;;20.76;28.97;97950.38;4977949;28;1548;-75
2023/11/14 05:54:48;;;;;;;;;;;;;;;20.58;29.32;97945.16;4977462;28;1543;-75
2023/11/14 05:57:16;;;;;;;;;;;;;;;20.48;29.81;97951.84;4977485;28;1418;-75
2023/11/14 05:59:42;;;;;;;;;;;;;;;21.00;28.90;97953.84;4961947;28;1543;-75
2023/11/14 06:02:09;;;;;;;;;;;;;;;21.16;28.57;97956.66;4977292;28;1723;-75
2023/11/14 06:04:35;;;;;;;;;;;;;;;21.39;28.31;97954.88;5035809;28;1669;-75
2023/11/14 06:07:00;;;;;;;;;;;;;;;20.47;29.84;97958.75;5036031;28;2042;-75
2023/11/14 06:09:26;;;;;;;;;;;;;;;20.55;29.37;97946.03;5034469;28;1525;-74
2023/11/14 06:11:51;;;;;;;;;;;;;;;20.65;29.27;97953.44;5019808;28;1588;-75
2023/11/14 06:14:17;;;;;;;;;;;;;;;20.34;29.74;97957.78;5038313;28;1509;-75
2023/11/14 06:16:42;;;;;;;;;;;;;;;20.19;30.24;97962.94;5021317;28;1644;-74
2023/11/14 06:19:08;;;;;;;;;;;;;;;20.52;29.77;97966.66;5037818;28;1524;-76
2023/11/14 06:21:33;;;;;;;;;;;;;;;20.41;29.91;97954.78;5039212;28;1514;-75
2023/11/14 06:23:59;;;;;;;;;;;;;;;20.55;29.53;97957.31;5021450;28;1479;-76
2023/11/14 06:26:24;;;;;;;;;;;;;;;20.46;29.85;97955.09;5038053;28;1906;-76
2023/11/14 06:28:50;;;;;;;;;;;;;;;20.51;30.00;97959.44;5038676;28;1430;-76
2023/11/14 06:31:15;;;;;;;;;;;;;;;20.61;29.70;97954.78;5039240;28;1539;-76
2023/11/14 06:33:41;;;;;;;;;;;;;;;20.36;29.86;97949.66;5038688;28;1517;-77
2023/11/14 06:36:07;;;;;;;;;;;;;;;21.18;28.61;97948.50;5039364;28;957;-76
2023/11/14 06:38:33;;;;;;;;;;;;;;;21.35;28.56;97940.03;5038034;28;1455;-76
2023/11/14 06:40:58;;;;;;;;;;;;;;;21.31;28.48;97934.47;5037969;28;1527;-76
2023/11/14 06:43:24;;;;;;;;;;;;;;;20.89;29.06;97942.00;5038758;28;1603;-76
2023/11/14 06:45:49;;;;;;;;;;;;;;;20.67;29.50;97936.84;5021233;28;1051;-76
2023/11/14 06:48:15;;;;;;;;;;;;;;;20.47;29.93;97941.78;5017624;28;1910;-76
2023/11/14 06:50:41;;;;;;;;;;;;;;;20.64;29.67;97926.44;5019677;28;1542;-76
2023/11/14 06:53:06;;;;;;;;;;;;;;;20.26;30.27;97918.41;5036305;28;1526;-76
2023/11/14 06:55:32;;;;;;;;;;;;;;;20.59;29.59;97926.16;5019654;28;1371;-76
2023/11/14 06:57:58;;;;;;;;;;;;;;;20.43;29.80;97926.91;5016171;28;1546;-75
2023/11/14 07:00:24;;;;;;;;;;;;;;;20.57;30.03;97925.78;5016248;28;1528;-75
2023/11/14 07:02:50;;;;;;;;;;;;;;;20.86;29.17;97920.25;5019372;28;1562;-76
2023/11/14 07:05:16;;;;;;;;;;;;;;;20.44;29.80;97928.47;5019626;28;1574;-75
2023/11/14 07:07:41;;;;;;;;;;;;;;;20.73;29.38;97918.13;5019495;28;1971;-75
2023/11/14 07:10:07;;;;;;;;;;;;;;;20.29;30.05;97928.81;5001300;28;1652;-75
2023/11/14 07:12:33;;;;;;;;;;;;;;;20.34;30.30;97923.88;4980136;28;1666;-75
2023/11/14 07:15:00;;;;;;;;;;;;;;;20.27;30.42;97924.84;4979974;28;1611;-75
2023/11/14 07:17:25;;;;;;;;;;;;;;;21.13;29.17;97917.91;4980248;28;1548;-76
2023/11/14 07:19:51;;;;;;;;;;;;;;;21.23;28.80;97928.16;4957311;29;1578;-75
2023/11/14 07:22:17;;;;;;;;;;;;;;;21.27;28.57;97923.22;4934416;29;1682;-76
2023/11/14 07:24:43;;;;;;;;;;;;;;;20.84;29.41;97922.72;4918944;29;1486;-75
2023/11/14 07:27:09;;;;;;;;;;;;;;;20.48;30.15;97929.22;4903335;29;1916;-75
2023/11/14 07:29:34;;;;;;;;;;;;;;;20.48;29.81;97921.53;4935164;29;1547;-75
2023/11/14 07:32:00;;;;;;;;;;;;;;;20.63;29.75;97936.16;4919167;29;1635;-76
2023/11/14 07:34:25;;;;;;;;;;;;;;;20.89;29.42;97936.34;4919299;29;1509;-76
2023/11/14 07:36:51;;;;;;;;;;;;;;;20.53;29.69;97937.19;4934999;29;1609;-75
2023/11/14 07:39:17;;;;;;;;;;;;;;;20.75;29.36;97921.31;4919045;29;1481;-76
2023/11/14 07:41:43;;;;;;;;;;;;;;;20.61;29.91;97921.63;4935123;29;1465;-75
2023/11/14 07:44:09;;;;;;;;;;;;;;;20.35;30.22;97931.09;4971766;28;1495;-75
2023/11/14 07:46:37;;;;;;;;;;;;;;;20.43;30.32;97939.00;4976641;28;1989;-75
2023/11/14 07:49:03;;;;;;;;;;;;;;;20.57;29.82;97932.22;4976251;28;1694;-75
2023/11/14 07:51:28;;;;;;;;;;;;;;;20.64;29.58;97925.63;4976451;28;1539;-74
2023/11/14 07:53:55;;;;;;;;;;;;;;;20.44;29.91;97931.31;5010814;28;1507;-75
2023/11/14 07:56:21;;;;;;;;;;;;;;;20.14;30.43;97938.03;5003927;28;972;-74
2023/11/14 07:58:47;;;;;;;;;;;;;;;20.81;29.97;97930.84;5054721;28;1313;-74
2023/11/14 08:01:13;;;;;;;;;;;;;;;21.28;28.84;97930.47;5037860;28;1589;-75
2023/11/14 08:03:38;;;;;;;;;;;;;;;21.27;29.06;97945.06;5054450;28;1662;-75
2023/11/14 08:06:04;;;;;;;;;;;;;;;20.92;29.31;97946.75;5038166;28;1572;-75
2023/11/14 08:08:30;;;;;;;;;;;;;;;20.95;29.30;97934.56;5017949;28;1981;-74
2023/11/14 08:10:55;;;;;;;;;;;;;;;20.63;29.72;97941.00;5047642;28;1589;-75
2023/11/14 08:13:21;;;;;;;;;;;;;;;20.58;29.86;97939.50;5071350;28;950;-76
2023/11/14 08:15:47;;;;;;;;;;;;;;;20.60;29.79;97937.00;5054656;28;1116;-75
2023/11/14 08:18:13;;;;;;;;;;;;;;;20.57;30.05;97928.59;5034551;28;1366;-75
2023/11/14 08:20:39;;;;;;;;;;;;;;;20.50;30.01;97929.56;5035006;28;1111;-74
2023/11/14 08:23:04;;;;;;;;;;;;;;;20.39;30.15;97926.19;5001987;28;1701;-75
2023/11/14 08:25:31;;;;;;;;;;;;;;;20.36;30.16;97927.03;4968029;28;1598;-74
2023/11/14 08:27:57;;;;;;;;;;;;;;;20.48;29.98;97929.22;4979303;28;1972;-75
2023/11/14 08:30:27;;;;;;;;;;;;;;;20.35;30.44;97936.75;4977165;28;1169;-75
2023/11/14 08:32:56;;;;;;;;;;;;;;;20.29;30.27;97923.16;4960601;28;1006;-74
2023/11/14 08:35:24;;;;;;;;;;;;;;;20.35;30.51;97919.81;4959316;28;1246;-74
2023/11/14 08:37:50;;;;;;;;;;;;;;;20.45;30.07;97922.38;4918976;29;1048;-75
2023/11/14 08:40:15;;;;;;;;;;;;;;;20.30;30.44;97910.59;4918391;29;1001;-74
2023/11/14 08:42:41;;;;;;;;;;;;;;;20.93;29.91;97905.91;4918300;29;1089;-75
2023/11/14 08:45:07;;;;;;;;;;;;;;;21.33;28.95;97909.34;4918527;29;1026;-74
2023/11/14 08:47:32;;;;;;;;;;;;;;;21.41;29.00;97909.97;4918384;29;1915;-74
2023/11/14 08:49:58;;;;;;;;;;;;;;;20.80;29.84;97898.16;4965137;28;1063;-75
2023/11/14 08:52:23;;;;;;;;;;;;;;;20.92;29.55;97907.16;4975872;28;1302;-74
2023/11/14 08:54:49;;;;;;;;;;;;;;;20.70;29.90;97896.38;4956133;28;935;-75
2023/11/14 08:57:14;;;;;;;;;;;;;;;20.61;30.00;97892.56;4956281;28;1046;-75
2023/11/14 08:59:40;;;;;;;;;;;;;;;20.25;30.48;97897.00;4956585;29;1095;-76
2023/11/14 09:02:06;;;;;;;;;;;;;;;20.33;30.78;97899.69;4940435;29;1042;-74
2023/11/14 09:04:32;;;;;;;;;;;;;;;20.62;30.19;97897.78;4956208;29;1291;-74
2023/11/14 09:06:57;;;;;;;;;;;;;;;20.65;30.19;97888.44;4956727;29;1915;-74
2023/11/14 09:09:23;;;;;;;;;;;;;;;20.70;29.82;97873.75;5000244;28;1192;-73
2023/11/14 09:11:49;;;;;;;;;;;;;;;20.62;30.10;97883.66;5014588;28;990;-73
2023/11/14 09:14:14;;;;;;;;;;;;;;;20.65;30.09;97888.44;5014363;28;1002;-74
2023/11/14 09:16:40;;;;;;;;;;;;;;;20.80;29.62;97875.53;5014712;28;989;-73
2023/11/14 09:19:06;;;;;;;;;;;;;;;20.32;30.53;97869.84;4998243;28;953;-74
2023/11/14 09:21:32;;;;;;;;;;;;;;;21.31;29.37;97867.34;5014434;28;988;-73
2023/11/14 09:23:57;;;;;;;;;;;;;;;21.75;28.62;97856.38;5014784;28;984;-74
2023/11/14 09:26:24;;;;;;;;;;;;;;;21.62;28.77;97863.28;5017483;28;1914;-73
2023/11/14 09:28:49;;;;;;;;;;;;;;;21.25;29.25;97852.13;5033792;28;940;-73
2023/11/14 09:31:15;;;;;;;;;;;;;;;21.08;29.49;97842.06;5017884;28;1022;-74
2023/11/14 09:33:42;;;;;;;;;;;;;;;20.69;30.19;97826.94;5034137;28;964;-73
2023/11/14 09:36:07;;;;;;;;;;;;;;;20.80;29.86;97821.00;5034273;28;1145;-73
2023/11/14 09:38:33;;;;;;;;;;;;;;;20.66;30.18;97816.50;5000940;28;1121;-74
2023/11/14 09:41:02;;;;;;;;;;;;;;;20.61;30.13;97819.06;5017468;28;1566;-74
2023/11/14 09:43:28;;;;;;;;;;;;;;;20.63;30.28;97825.09;4994270;28;974;-74
2023/11/14 09:45:56;;;;;;;;;;;;;;;20.80;29.83;97821.81;4996580;28;910;-74
2023/11/14 09:48:21;;;;;;;;;;;;;;;20.53;30.29;97821.31;4966228;28;1910;-74
2023/11/14 09:50:47;;;;;;;;;;;;;;;20.38;30.55;97822.88;4982183;28;933;-74
2023/11/14 09:53:12;;;;;;;;;;;;;;;20.91;29.46;97826.38;4982517;28;1050;-74
2023/11/14 09:55:38;;;;;;;;;;;;;;;20.70;29.82;97822.88;4998539;28;1051;-74
2023/11/14 09:58:05;;;;;;;;;;;;;;;20.67;30.13;97829.41;4998539;28;1047;-73
2023/11/14 10:00:31;;;;;;;;;;;;;;;20.83;29.54;97824.97;4998892;28;1052;-73
2023/11/14 10:02:57;;;;;;;;;;;;;;;20.42;30.54;97815.09;4998224;28;1310;-74
2023/11/14 10:05:22;;;;;;;;;;;;;;;20.68;30.04;97805.56;4978621;28;1073;-74
2023/11/14 10:07:50;;;;;;;;;;;;;;;20.60;30.13;97809.81;4994893;28;1980;-73
2023/11/14 10:10:16;;;;;;;;;;;;;;;20.65;30.02;97803.63;4978494;28;1127;-74
2023/11/14 10:12:42;;;;;;;;;;;;;;;20.68;29.67;97791.44;4978820;28;961;-73
2023/11/14 10:15:07;;;;;;;;;;;;;;;20.58;30.20;97795.34;4994661;28;1185;-73
2023/11/14 10:17:43;;;;;;;;;;;;;;;21.08;29.72;97796.81;5009947;28;1964;-73
2023/11/14 10:20:08;;;;;;;;;;;;;;;21.43;29.31;97789.38;5017695;28;1170;-73
2023/11/14 10:22:34;;;;;;;;;;;;;;;21.53;29.08;97795.97;5001018;28;1029;-73
2023/11/14 10:25:00;;;;;;;;;;;;;;;21.13;29.64;97790.59;4998772;28;1289;-73
2023/11/14 10:27:26;;;;;;;;;;;;;;;20.96;29.73;97789.06;4985041;28;1973;-74
2023/11/14 10:29:53;;;;;;;;;;;;;;;20.35;30.60;97789.81;4984681;28;1000;-74
2023/11/14 10:32:19;;;;;;;;;;;;;;;20.91;29.53;97792.44;5017319;28;1019;-74
2023/11/14 10:34:45;;;;;;;;;;;;;;;21.01;29.38;97786.50;5000873;28;1029;-74
2023/11/14 10:37:10;;;;;;;;;;;;;;;20.65;30.27;97781.00;5034509;28;995;-73
2023/11/14 10:39:43;;;;;;;;;;;;;;;20.32;30.61;97785.06;5048717;28;1760;-73
2023/11/14 10:42:10;;;;;;;;;;;;;;;20.45;30.45;97785.94;5017151;28;1101;-73
2023/11/14 10:44:35;;;;;;;;;;;;;;;20.11;30.89;97781.53;5000749;28;1239;-73
2023/11/14 10:47:02;;;;;;;;;;;;;;;20.44;30.29;97778.69;5020637;28;1906;-74
2023/11/14 10:49:30;;;;;;;;;;;;;;;20.63;30.19;97766.53;5036559;28;1534;-74
2023/11/14 10:51:56;;;;;;;;;;;;;;;20.40;30.48;97775.16;5020440;28;1300;-73
2023/11/14 10:54:22;;;;;;;;;;;;;;;20.96;29.80;97772.09;5036254;28;1720;-74
2023/11/14 10:56:47;;;;;;;;;;;;;;;21.24;29.66;97764.84;5049407;28;1656;-74
2023/11/14 10:59:13;;;;;;;;;;;;;;;21.17;29.51;97771.50;5038391;28;1631;-74
2023/11/14 11:01:39;;;;;;;;;;;;;;;21.02;29.53;97770.31;5038556;28;1715;-74
2023/11/14 11:04:05;;;;;;;;;;;;;;;20.46;30.20;97767.75;5038329;28;1634;-74
2023/11/14 11:06:31;;;;;;;;;;;;;;;20.78;29.67;97767.75;5036831;28;1898;-75
2023/11/14 11:08:57;;;;;;;;;;;;;;;20.67;29.40;97766.41;5052997;28;1592;-74
2023/11/14 11:11:24;;;;;;;;;;;;;;;20.54;29.79;97763.53;5038632;28;1353;-75
2023/11/14 11:13:49;;;;;;;;;;;;;;;20.48;30.11;97760.44;4999491;28;1527;-75
2023/11/14 11:16:15;;;;;;;;;;;;;;;20.46;29.86;97767.75;5016159;28;1613;-74
2023/11/14 11:18:42;;;;;;;;;;;;;;;21.21;28.94;97772.19;4983342;28;1556;-74
2023/11/14 11:21:11;;;;;;;;;;;;;;;21.29;28.66;97762.25;5016369;28;1643;-74
2023/11/14 11:23:55;;;;;;;;;;;;;;;21.26;28.72;97746.19;4983185;28;1515;-74
2023/11/14 11:26:21;;;;;;;;;;;;;;;20.42;29.91;97736.75;5013074;28;1989;-75
2023/11/14 11:28:46;;;;;;;;;;;;;;;20.65;29.74;97735.78;5015760;28;1474;-74
2023/11/14 11:31:15;;;;;;;;;;;;;;;20.52;29.60;97720.75;5015794;28;1638;-74
2023/11/14 11:33:44;;;;;;;;;;;;;;;20.56;29.69;97721.47;5015682;28;1663;-74
2023/11/14 11:36:23;;;;;;;;;;;;;;;20.51;29.64;97724.84;4999597;28;1415;-74
2023/11/14 11:38:52;;;;;;;;;;;;;;;20.61;29.24;97723.75;5010957;28;1529;-74
2023/11/14 11:41:18;;;;;;;;;;;;;;;20.54;29.40;97710.63;4999761;28;1601;-75
2023/11/14 11:43:44;;;;;;;;;;;;;;;20.32;29.97;97701.09;5000668;28;1510;-74
2023/11/14 11:46:29;;;;;;;;;;;;;;;20.71;29.75;97697.22;5019359;28;1554;-74
2023/11/14 11:48:55;;;;;;;;;;;;;;;21.37;28.28;97703.44;5051797;28;1515;-74
2023/11/14 11:51:21;;;;;;;;;;;;;;;21.26;28.63;97695.25;5037735;28;1562;-74
2023/11/14 11:53:49;;;;;;;;;;;;;;;20.97;29.07;97692.44;5036367;28;1557;-74
2023/11/14 11:56:33;;;;;;;;;;;;;;;20.59;29.51;97681.03;5020770;28;1485;-74
2023/11/14 11:58:59;;;;;;;;;;;;;;;20.72;29.40;97679.00;5036399;28;1278;-74
2023/11/14 12:01:24;;;;;;;;;;;;;;;20.53;29.49;97679.97;5019641;28;1552;-74
2023/11/14 12:03:50;;;;;;;;;;;;;;;20.36;29.54;97672.72;5037009;28;1514;-74
2023/11/14 12:06:16;;;;;;;;;;;;;;;20.58;29.19;97668.13;5037557;28;1552;-74
2023/11/14 12:08:41;;;;;;;;;;;;;;;20.54;29.39;97658.94;5035721;28;1914;-74
2023/11/14 12:11:14;;;;;;;;;;;;;;;20.91;28.66;97656.69;5036056;28;1486;-74
2023/11/14 12:13:40;;;;;;;;;;;;;;;21.08;28.81;97661.03;5036108;28;1574;-74
2023/11/14 12:16:06;;;;;;;;;;;;;;;21.31;28.10;97643.00;5037152;28;1538;-74
2023/11/14 12:18:32;;;;;;;;;;;;;;;20.92;28.92;97646.97;5036306;28;1600;-74
2023/11/14 12:20:58;;;;;;;;;;;;;;;20.59;29.15;97635.78;5019516;28;1282;-74
2023/11/14 12:23:24;;;;;;;;;;;;;;;20.69;29.09;97634.69;5020050;28;1262;-74
2023/11/14 12:25:49;;;;;;;;;;;;;;;20.59;29.13;97632.97;5019452;28;1007;-74
2023/11/14 12:28:15;;;;;;;;;;;;;;;20.84;28.71;97634.28;5035894;28;1985;-74
2023/11/14 12:31:01;;;;;;;;;;;;;;;20.49;29.29;97634.06;5036209;28;1118;-74
2023/11/14 12:33:27;;;;;;;;;;;;;;;21.37;28.17;97638.34;5036605;28;1014;-74
2023/11/14 12:35:58;;;;;;;;;;;;;;;21.32;28.21;97642.53;5036037;28;1280;-74
2023/11/14 12:38:30;;;;;;;;;;;;;;;21.16;28.20;97668.06;5035782;28;907;-74
2023/11/14 12:41:28;;;;;;;;;;;;;;;20.76;29.18;97665.56;5018342;28;988;-74
2023/11/14 12:43:53;;;;;;;;;;;;;;;20.81;28.70;97667.84;5035748;28;1183;-74
2023/11/14 12:46:25;;;;;;;;;;;;;;;20.47;29.46;97665.59;5037014;28;960;-74
2023/11/14 12:49:04;;;;;;;;;;;;;;;20.41;29.29;97658.06;5035801;28;981;-74
2023/11/14 12:51:30;;;;;;;;;;;;;;;20.44;29.25;97657.97;5035707;28;961;-75
2023/11/14 12:53:56;;;;;;;;;;;;;;;20.60;29.23;97660.00;5035930;28;948;-74